Terminal Aerodrome Forecast
Issued by NWS

Home | Current Version | Previous Version | Text Only | Print | Product List | Glossary On
Versions: 1 2 3 4 5 6 7 8 9 10 11 12 13 14 15 16 17 18 19 20 21 22 23 24 25 26 27
502
FTAK31 PANC 241727
TAFATK
TAF
PATK 241727Z 2418/2518 03005KT P6SM -RA OVC035 WS020/14025KT
      TEMPO 2418/2421 OVC025
     FM242100 02010G20KT 6SM -RA OVC025 WS020/14030KT
     FM250200 15010G20KT 5SM -RASN BR OVC020 WS020/16040KT
     FM250600 17012G22KT P6SM VCSH SCT025 BKN035
     FM251200 17008KT P6SM VCSH SCT025 BKN035=

USA.gov is the U.S. government's official web portal to all federal, state and local government web resources and services.